Carlinville, Illinois
Current Conditions -  °F | °C
As of 7:55 PM on Friday 24 Oct 2014 (Local Time) from K3LF Reporting Station
Scattered Clouds Scattered Clouds  
Wind Chill: 59°   Ceiling: Unl
Heat Index: 59°   Visibility: 10mi
Dew Point: 48°   Wind: 7mph
Humidity: 69%   Direction: 160°SSE
Pressure: 30"   Gusts: NA
Location:  39.28°N, 89.88°W
Report Text: K3LF 250055Z AUTO 16006KT 10SM SCT040 15/09 A3000 RMK AO2 T01480091
Loading
Personal Weather Stations






























Interactive Weather Map
Tropical Storm Tracking
New forecast layout! Learn more

10-Day Weather Forecast

Advertisements
Track Severe Weather on mobile